Time;durP1;ratioP1;P1;durP2;ratioP2;P2;SDS_P1;SDS_P2;PMS_P1;PMS_P2;Temp;Humidity;BMP_temperature;BMP_pressure;BME280_temperature;BME280_humidity;BME280_pressure;Samples;Min_cycle;Max_cycle;Signal;HPM_P1;HPM_P2
2023/08/14 00:01:57;;;;;;;0.17;0.10;;;14.60;99.90;;;;;;5106579;28;20388;-68
2023/08/14 00:04:23;;;;;;;0.57;0.22;;;14.60;99.90;;;;;;5100452;28;20038;-68
2023/08/14 00:06:48;;;;;;;0.10;0.10;;;14.60;99.90;;;;;;5110796;28;20444;-69
2023/08/14 00:09:14;;;;;;;1.23;0.43;;;14.60;99.90;;;;;;5104129;28;20123;-69
2023/08/14 00:11:40;;;;;;;0.25;0.15;;;14.60;99.90;;;;;;5109460;28;20487;-68
2023/08/14 00:14:05;;;;;;;0.17;0.08;;;14.60;99.90;;;;;;5102783;28;20036;-68
2023/08/14 00:16:31;;;;;;;0.13;0.13;;;14.60;99.90;;;;;;5106241;28;20039;-68
2023/08/14 00:18:57;;;;;;;0.50;0.30;;;14.60;99.90;;;;;;5090517;28;20043;-68
2023/08/14 00:21:23;;;;;;;0.50;0.40;;;14.50;99.90;;;;;;5105578;28;20481;-68
2023/08/14 00:23:49;;;;;;;0.70;0.40;;;14.50;99.90;;;;;;5101298;28;20039;-68
2023/08/14 00:26:15;;;;;;;0.38;0.22;;;14.50;99.90;;;;;;5107068;28;20039;-68
2023/08/14 00:28:41;;;;;;;0.25;0.13;;;14.50;99.90;;;;;;5106354;28;20399;-69
2023/08/14 00:31:06;;;;;;;0.50;0.30;;;14.50;99.90;;;;;;5105146;28;20065;-68
2023/08/14 00:33:32;;;;;;;0.10;0.10;;;14.50;99.90;;;;;;5105186;28;20445;-67
2023/08/14 00:35:59;;;;;;;0.52;0.38;;;14.40;99.90;;;;;;5107916;27;20070;-68
2023/08/14 00:38:24;;;;;;;0.30;0.20;;;14.50;99.90;;;;;;5105798;28;20058;-67
2023/08/14 00:40:52;;;;;;;0.35;0.10;;;14.40;99.90;;;;;;5106623;28;20040;-67
2023/08/14 00:43:22;;;;;;;0.52;0.20;;;14.40;99.90;;;;;;5106194;28;20090;-68
2023/08/14 00:45:51;;;;;;;0.35;0.10;;;14.30;99.90;;;;;;5104760;28;20059;-68
2023/08/14 00:48:17;;;;;;;1.35;0.38;;;14.30;99.90;;;;;;5105139;28;20072;-67
2023/08/14 00:50:43;;;;;;;0.57;0.30;;;14.30;99.90;;;;;;5105845;28;20482;-67
2023/08/14 00:53:10;;;;;;;0.43;0.17;;;14.20;99.90;;;;;;5110653;28;20043;-67
2023/08/14 00:55:36;;;;;;;0.50;0.28;;;14.20;99.90;;;;;;5105445;28;20499;-68
2023/08/14 00:58:02;;;;;;;1.20;0.40;;;14.20;99.90;;;;;;5104344;28;20123;-68
2023/08/14 01:00:29;;;;;;;0.35;0.20;;;14.20;99.90;;;;;;5105909;28;20038;-66
2023/08/14 01:02:55;;;;;;;0.43;0.30;;;14.20;99.90;;;;;;5105791;28;20039;-66
2023/08/14 01:05:22;;;;;;;0.35;0.30;;;14.10;99.90;;;;;;5105528;28;20028;-67
2023/08/14 01:07:48;;;;;;;0.28;0.13;;;14.10;99.90;;;;;;5107098;28;20048;-66
2023/08/14 01:10:14;;;;;;;0.80;0.47;;;14.10;99.90;;;;;;5104172;28;20511;-66
2023/08/14 01:12:52;;;;;;;0.35;0.20;;;14.10;99.90;;;;;;5108270;28;20050;-65
2023/08/14 01:15:41;;;;;;;0.20;0.10;;;14.20;99.90;;;;;;5106496;28;20487;-65
2023/08/14 01:18:09;;;;;;;0.63;0.30;;;14.10;99.90;;;;;;5101690;28;20116;-66
2023/08/14 01:20:37;;;;;;;0.35;0.20;;;14.20;99.90;;;;;;5109770;28;20043;-66
2023/08/14 01:23:22;;;;;;;0.55;0.10;;;14.20;99.90;;;;;;5102706;28;20092;-66
2023/08/14 01:25:50;;;;;;;0.25;0.20;;;14.20;99.90;;;;;;5108232;28;20035;-66
2023/08/14 01:28:17;;;;;;;0.70;0.20;;;14.20;99.90;;;;;;5102106;28;20070;-66
2023/08/14 01:30:42;;;;;;;0.82;0.30;;;14.20;99.90;;;;;;5103540;28;20039;-66
2023/08/14 01:33:08;;;;;;;0.10;0.10;;;14.10;99.90;;;;;;5088342;28;20495;-66
2023/08/14 01:35:39;;;;;;;0.35;0.30;;;14.10;99.90;;;;;;5108471;28;20100;-66
2023/08/14 01:38:24;;;;;;;0.52;0.30;;;14.20;99.90;;;;;;5108218;28;20039;-66
2023/08/14 01:41:12;;;;;;;0.60;0.32;;;14.20;99.90;;;;;;5106829;28;20032;-66
2023/08/14 01:43:43;;;;;;;0.17;0.10;;;14.10;99.90;;;;;;5105733;28;20044;-65
2023/08/14 01:46:10;;;;;;;0.50;0.20;;;14.10;99.90;;;;;;5105515;28;20118;-66
2023/08/14 01:48:38;;;;;;;0.40;0.20;;;14.00;99.90;;;;;;5106061;28;20036;-66
2023/08/14 01:51:05;;;;;;;0.65;0.22;;;14.10;99.90;;;;;;5104772;28;20047;-67
2023/08/14 01:53:34;;;;;;;0.63;0.35;;;14.00;99.90;;;;;;5102634;28;20256;-66
2023/08/14 01:55:59;;;;;;;0.77;0.32;;;14.00;99.90;;;;;;5105621;28;20123;-66
2023/08/14 01:58:25;;;;;;;1.00;0.45;;;14.00;99.90;;;;;;5105612;28;20115;-65
2023/08/14 02:00:51;;;;;;;0.55;0.38;;;14.00;99.90;;;;;;5104837;28;20497;-67
2023/08/14 02:03:16;;;;;;;0.63;0.20;;;14.10;99.90;;;;;;5105671;28;20044;-66
2023/08/14 02:05:42;;;;;;;1.05;0.60;;;14.00;99.90;;;;;;5107228;28;20039;-66
2023/08/14 02:08:08;;;;;;;0.38;0.38;;;14.00;99.90;;;;;;5105548;28;20202;-66
2023/08/14 02:10:33;;;;;;;0.43;0.28;;;14.00;99.90;;;;;;5106330;28;20092;-65
2023/08/14 02:12:59;;;;;;;0.73;0.63;;;14.00;99.90;;;;;;5108066;28;20320;-66
2023/08/14 02:15:25;;;;;;;0.60;0.38;;;14.00;99.90;;;;;;5098681;28;20039;-67
2023/08/14 02:17:51;;;;;;;1.08;0.35;;;14.00;99.90;;;;;;5105952;28;20138;-66
2023/08/14 02:20:17;;;;;;;2.05;0.30;;;14.00;99.90;;;;;;5106818;28;20501;-66
2023/08/14 02:22:43;;;;;;;0.10;0.10;;;14.00;99.90;;;;;;5102979;28;20043;-66
2023/08/14 02:25:09;;;;;;;1.33;0.45;;;14.00;99.90;;;;;;5107342;28;20123;-65
2023/08/14 02:27:34;;;;;;;1.20;0.20;;;14.00;99.90;;;;;;5103345;28;20065;-66
2023/08/14 02:30:00;;;;;;;1.85;0.50;;;14.00;99.90;;;;;;5102743;28;20140;-65
2023/08/14 02:32:26;;;;;;;0.88;0.35;;;14.00;99.90;;;;;;5103231;28;20047;-66
2023/08/14 02:34:55;;;;;;;0.45;0.30;;;14.00;99.90;;;;;;5105026;28;20224;-66
2023/08/14 02:37:22;;;;;;;0.32;0.20;;;13.90;99.90;;;;;;5105616;28;20110;-65
2023/08/14 02:39:48;;;;;;;0.85;0.25;;;13.90;99.90;;;;;;5105854;28;20130;-66
2023/08/14 02:42:16;;;;;;;0.88;0.43;;;13.90;99.90;;;;;;5102757;28;20047;-66
2023/08/14 02:44:42;;;;;;;1.83;0.55;;;13.90;99.90;;;;;;5106821;28;20047;-66
2023/08/14 02:47:07;;;;;;;0.82;0.38;;;13.90;99.90;;;;;;5102433;28;20040;-66
2023/08/14 02:49:33;;;;;;;0.75;0.50;;;13.90;99.90;;;;;;5102261;28;20035;-66
2023/08/14 02:51:59;;;;;;;0.70;0.32;;;13.80;99.90;;;;;;5098368;28;20067;-66
2023/08/14 02:54:25;;;;;;;0.47;0.20;;;13.80;99.90;;;;;;5105380;28;20363;-67
2023/08/14 02:56:51;;;;;;;3.85;0.43;;;13.80;99.90;;;;;;5101951;28;20032;-66
2023/08/14 02:59:17;;;;;;;0.90;0.60;;;13.80;99.90;;;;;;5105073;28;20487;-67
2023/08/14 03:01:42;;;;;;;1.17;0.52;;;13.80;99.90;;;;;;5103923;28;20020;-66
2023/08/14 03:04:08;;;;;;;0.95;0.30;;;13.80;99.90;;;;;;5100970;28;20055;-66
2023/08/14 03:06:34;;;;;;;0.20;0.10;;;13.80;99.90;;;;;;5106488;28;20096;-66
2023/08/14 03:08:59;;;;;;;1.55;0.38;;;13.80;99.90;;;;;;5102066;28;20038;-67
2023/08/14 03:11:26;;;;;;;1.20;0.55;;;13.80;99.90;;;;;;5104503;28;20081;-66
2023/08/14 03:13:51;;;;;;;0.30;0.20;;;13.80;99.90;;;;;;5103410;28;20049;-67
2023/08/14 03:16:17;;;;;;;1.02;0.55;;;13.80;99.90;;;;;;5105074;28;20043;-66
2023/08/14 03:18:43;;;;;;;0.93;0.40;;;13.80;99.90;;;;;;5107046;28;20115;-67
2023/08/14 03:21:08;;;;;;;1.55;0.20;;;13.80;99.90;;;;;;5106571;28;20487;-66
2023/08/14 03:23:35;;;;;;;0.52;0.30;;;13.80;99.90;;;;;;5099913;28;20460;-66
2023/08/14 03:26:01;;;;;;;2.50;0.30;;;13.80;99.90;;;;;;5100856;28;20043;-66
2023/08/14 03:28:27;;;;;;;0.60;0.40;;;13.80;99.90;;;;;;5105209;28;20055;-66
2023/08/14 03:30:53;;;;;;;0.40;0.25;;;13.80;99.90;;;;;;5100631;28;20032;-66
2023/08/14 03:33:19;;;;;;;1.13;0.38;;;13.80;99.90;;;;;;5108600;28;20093;-67
2023/08/14 03:35:44;;;;;;;0.63;0.28;;;13.80;99.90;;;;;;5106429;28;20043;-66
2023/08/14 03:38:10;;;;;;;2.90;0.45;;;13.80;99.90;;;;;;5108781;28;20036;-66
2023/08/14 03:40:36;;;;;;;0.52;0.40;;;13.70;99.90;;;;;;5108498;27;20078;-66
2023/08/14 03:43:02;;;;;;;0.32;0.22;;;13.70;99.90;;;;;;5104725;28;20518;-67
2023/08/14 03:45:28;;;;;;;0.47;0.30;;;13.70;99.90;;;;;;5105531;28;20044;-66
2023/08/14 03:47:53;;;;;;;0.52;0.25;;;13.70;99.90;;;;;;5110517;28;20099;-66
2023/08/14 03:50:19;;;;;;;0.45;0.20;;;13.70;99.90;;;;;;5110315;28;20032;-67
2023/08/14 03:52:45;;;;;;;3.20;0.40;;;13.70;99.90;;;;;;5109651;28;20103;-66
2023/08/14 03:55:11;;;;;;;1.55;0.70;;;13.70;99.90;;;;;;5108511;28;20054;-66
2023/08/14 03:57:36;;;;;;;0.63;0.38;;;13.70;99.90;;;;;;5109176;28;20036;-66
2023/08/14 04:00:03;;;;;;;0.98;0.50;;;13.60;99.90;;;;;;5107653;28;20035;-66
2023/08/14 04:02:28;;;;;;;0.65;0.38;;;13.60;99.90;;;;;;5106187;27;20039;-66
2023/08/14 04:04:54;;;;;;;0.38;0.32;;;13.60;99.90;;;;;;5106405;28;20047;-67
2023/08/14 04:07:20;;;;;;;0.68;0.40;;;13.60;99.90;;;;;;5105044;28;20031;-66
2023/08/14 04:09:45;;;;;;;0.60;0.32;;;13.60;99.90;;;;;;5107596;28;20036;-66
2023/08/14 04:12:11;;;;;;;1.52;0.63;;;13.50;99.90;;;;;;5105789;28;20043;-67
2023/08/14 04:14:37;;;;;;;0.90;0.32;;;13.60;99.90;;;;;;5107581;28;20044;-67
2023/08/14 04:17:03;;;;;;;0.82;0.28;;;13.50;99.90;;;;;;5105210;28;20544;-66
2023/08/14 04:19:29;;;;;;;0.85;0.32;;;13.50;99.90;;;;;;5106150;28;20047;-67
2023/08/14 04:21:54;;;;;;;2.85;0.77;;;13.50;99.90;;;;;;5107088;28;20119;-67
2023/08/14 04:24:20;;;;;;;0.47;0.32;;;13.50;99.90;;;;;;5102655;28;20487;-67
2023/08/14 04:26:46;;;;;;;0.95;0.52;;;13.50;99.90;;;;;;5105143;28;20071;-67
2023/08/14 04:29:12;;;;;;;0.60;0.40;;;13.60;99.90;;;;;;5104473;28;20032;-67
2023/08/14 04:31:39;;;;;;;0.40;0.20;;;13.60;99.90;;;;;;5101546;28;20043;-66
2023/08/14 04:34:05;;;;;;;0.47;0.20;;;13.60;99.90;;;;;;5105664;28;20040;-67
2023/08/14 04:36:32;;;;;;;0.25;0.15;;;13.60;99.90;;;;;;5099963;28;20071;-67
2023/08/14 04:38:59;;;;;;;0.43;0.22;;;13.60;99.90;;;;;;5098250;27;20050;-67
2023/08/14 04:41:25;;;;;;;0.77;0.40;;;13.60;99.90;;;;;;5101714;28;20131;-67
2023/08/14 04:43:51;;;;;;;0.95;0.50;;;13.60;99.90;;;;;;5102645;28;20052;-67
2023/08/14 04:46:36;;;;;;;1.08;0.70;;;13.60;99.90;;;;;;5098139;28;20381;-66
2023/08/14 04:49:03;;;;;;;0.85;0.40;;;13.60;99.90;;;;;;5100900;28;20047;-67
2023/08/14 04:51:30;;;;;;;0.90;0.60;;;13.70;99.90;;;;;;5099252;28;20036;-67
2023/08/14 04:53:56;;;;;;;0.30;0.20;;;13.70;99.90;;;;;;5102016;28;20070;-66
2023/08/14 04:56:22;;;;;;;0.88;0.40;;;13.80;99.90;;;;;;5097669;28;20036;-66
2023/08/14 04:58:48;;;;;;;0.70;0.43;;;13.90;99.90;;;;;;5102807;28;20039;-66
2023/08/14 05:01:14;;;;;;;1.25;0.55;;;13.90;99.90;;;;;;5097587;28;20083;-66
2023/08/14 05:03:40;;;;;;;1.08;0.40;;;14.00;99.90;;;;;;5099083;28;20032;-66
2023/08/14 05:06:06;;;;;;;1.23;0.40;;;14.10;99.90;;;;;;5099223;28;20044;-67
2023/08/14 05:08:32;;;;;;;0.60;0.32;;;14.10;99.90;;;;;;5103083;27;20039;-66
2023/08/14 05:10:57;;;;;;;1.70;0.47;;;14.20;99.90;;;;;;5103100;28;20047;-67
2023/08/14 05:13:23;;;;;;;1.27;0.43;;;14.30;99.90;;;;;;5102604;28;20133;-67
2023/08/14 05:15:51;;;;;;;1.52;0.60;;;14.40;99.90;;;;;;5095774;28;20036;-66
2023/08/14 05:18:17;;;;;;;0.98;0.50;;;14.50;99.90;;;;;;5100323;28;20090;-67
2023/08/14 05:20:43;;;;;;;0.88;0.60;;;14.70;99.90;;;;;;5103218;28;20035;-67
2023/08/14 05:23:13;;;;;;;0.57;0.30;;;14.80;99.90;;;;;;5101838;28;20043;-67
2023/08/14 05:25:41;;;;;;;1.30;0.70;;;14.90;99.90;;;;;;5098025;28;20040;-66
2023/08/14 05:28:07;;;;;;;2.45;0.50;;;15.10;99.90;;;;;;5098926;28;20311;-67
2023/08/14 05:30:32;;;;;;;0.70;0.40;;;15.20;99.90;;;;;;5097849;28;20036;-66
2023/08/14 05:32:58;;;;;;;0.68;0.35;;;15.30;99.90;;;;;;5101743;28;20040;-67
2023/08/14 05:35:24;;;;;;;0.55;0.40;;;15.40;99.90;;;;;;5100730;27;20035;-68
2023/08/14 05:37:57;;;;;;;2.70;0.77;;;15.50;99.90;;;;;;5103684;28;20032;-67
2023/08/14 05:40:24;;;;;;;1.13;0.60;;;15.70;99.90;;;;;;5104660;28;20059;-67
2023/08/14 05:43:07;;;;;;;2.33;0.40;;;15.80;99.90;;;;;;5099385;28;20051;-67
2023/08/14 05:45:43;;;;;;;0.60;0.22;;;15.90;99.90;;;;;;5096463;28;20122;-67
2023/08/14 05:48:10;;;;;;;0.95;0.40;;;16.10;99.90;;;;;;5101303;28;20133;-67
2023/08/14 05:50:36;;;;;;;0.98;0.35;;;16.20;99.90;;;;;;5089807;28;20043;-67
2023/08/14 05:53:04;;;;;;;1.10;0.70;;;16.30;99.90;;;;;;5099335;28;20104;-67
2023/08/14 05:55:32;;;;;;;1.00;0.50;;;16.30;99.90;;;;;;5097539;28;20043;-67
2023/08/14 05:57:58;;;;;;;1.55;0.40;;;16.30;99.90;;;;;;5099912;28;20530;-67
2023/08/14 06:00:25;;;;;;;1.02;0.77;;;16.30;99.90;;;;;;5100981;28;20573;-68
2023/08/14 06:02:51;;;;;;;0.68;0.50;;;16.30;99.90;;;;;;5100680;28;20183;-67
2023/08/14 06:05:17;;;;;;;1.00;0.40;;;16.40;99.90;;;;;;5100162;28;20483;-67
2023/08/14 06:07:43;;;;;;;0.88;0.60;;;16.40;99.90;;;;;;5103724;28;20115;-67
2023/08/14 06:10:09;;;;;;;3.15;1.17;;;16.50;99.90;;;;;;5100958;28;20032;-67
2023/08/14 06:12:35;;;;;;;0.57;0.43;;;16.50;99.90;;;;;;5104342;28;20032;-66
2023/08/14 06:15:01;;;;;;;1.15;0.57;;;16.50;99.90;;;;;;5101173;28;20054;-66
2023/08/14 06:17:28;;;;;;;1.67;0.60;;;16.70;99.90;;;;;;5104468;28;20046;-66
2023/08/14 06:19:53;;;;;;;4.55;0.50;;;16.70;99.90;;;;;;5101073;28;20100;-67
2023/08/14 06:22:20;;;;;;;1.23;0.73;;;16.70;99.90;;;;;;5100953;28;20039;-66
2023/08/14 06:24:46;;;;;;;1.92;0.90;;;16.80;99.90;;;;;;5095513;28;20132;-67
2023/08/14 06:27:12;;;;;;;1.65;0.90;;;16.80;99.90;;;;;;5102901;28;20039;-67
2023/08/14 06:29:37;;;;;;;1.73;0.95;;;16.90;99.90;;;;;;5097533;28;20031;-67
2023/08/14 06:32:05;;;;;;;1.92;0.75;;;16.90;99.90;;;;;;5095935;28;20062;-67
2023/08/14 06:34:31;;;;;;;1.08;0.80;;;16.90;99.90;;;;;;5101175;28;20108;-66
2023/08/14 06:36:57;;;;;;;0.85;0.57;;;16.90;99.90;;;;;;5100286;28;20074;-67
2023/08/14 06:39:22;;;;;;;2.20;0.70;;;17.00;99.90;;;;;;5101140;28;20065;-67
2023/08/14 06:41:48;;;;;;;0.70;0.40;;;17.10;99.90;;;;;;5098743;28;20477;-66
2023/08/14 06:44:14;;;;;;;1.35;0.63;;;17.10;99.90;;;;;;5098096;28;20052;-67
2023/08/14 06:46:40;;;;;;;0.60;0.40;;;17.10;99.90;;;;;;5103617;28;20043;-67
2023/08/14 06:49:06;;;;;;;1.58;0.93;;;17.10;99.90;;;;;;5103675;28;20408;-66
2023/08/14 06:51:32;;;;;;;1.30;0.90;;;17.20;99.90;;;;;;5094178;28;20682;-66
2023/08/14 06:53:57;;;;;;;1.60;1.08;;;17.20;99.90;;;;;;5097533;28;20462;-67
2023/08/14 06:56:24;;;;;;;1.23;0.60;;;17.20;99.90;;;;;;5095488;28;20039;-67
2023/08/14 06:58:49;;;;;;;1.30;0.70;;;17.30;99.90;;;;;;5100681;28;20040;-66
2023/08/14 07:01:15;;;;;;;0.80;0.50;;;17.30;99.90;;;;;;5096913;28;20178;-66
2023/08/14 07:03:41;;;;;;;0.90;0.50;;;17.40;99.90;;;;;;5102297;28;20085;-66
2023/08/14 07:06:07;;;;;;;1.05;0.82;;;17.40;99.90;;;;;;5104130;28;20631;-67
2023/08/14 07:08:32;;;;;;;0.98;0.50;;;17.50;99.90;;;;;;5099314;28;20039;-67
2023/08/14 07:10:58;;;;;;;1.15;0.55;;;17.50;99.90;;;;;;5100304;28;20032;-67
2023/08/14 07:13:24;;;;;;;0.70;0.50;;;17.60;99.90;;;;;;5104207;28;20401;-66
2023/08/14 07:15:50;;;;;;;0.93;0.35;;;17.70;99.90;;;;;;5105808;27;20062;-67
2023/08/14 07:18:18;;;;;;;1.48;0.85;;;17.70;99.90;;;;;;5104522;28;20048;-66
2023/08/14 07:20:45;;;;;;;1.55;0.73;;;17.80;99.90;;;;;;5105966;28;20097;-66
2023/08/14 07:23:20;;;;;;;0.52;0.43;;;17.90;99.90;;;;;;5107910;28;20031;-66
2023/08/14 07:25:46;;;;;;;1.95;0.98;;;18.00;99.90;;;;;;5106351;27;20035;-66
2023/08/14 07:28:12;;;;;;;2.25;0.77;;;18.20;99.90;;;;;;5101261;28;20038;-66
2023/08/14 07:30:39;;;;;;;0.85;0.70;;;18.30;99.90;;;;;;5102600;27;20035;-67
2023/08/14 07:33:10;;;;;;;0.93;0.68;;;18.50;99.90;;;;;;5109195;28;20040;-66
2023/08/14 07:35:38;;;;;;;1.00;0.60;;;18.60;99.90;;;;;;5105108;28;20040;-66
2023/08/14 07:38:04;;;;;;;1.25;0.80;;;18.80;99.90;;;;;;5106976;28;20468;-66
2023/08/14 07:40:30;;;;;;;0.88;0.32;;;19.10;99.90;;;;;;5109777;28;20150;-67
2023/08/14 07:42:56;;;;;;;2.83;0.98;;;19.40;99.90;;;;;;5109098;28;20048;-66
2023/08/14 07:45:21;;;;;;;0.70;0.50;;;19.60;99.90;;;;;;5106878;28;20059;-67
2023/08/14 07:47:47;;;;;;;1.55;0.63;;;19.70;99.90;;;;;;5104666;28;20040;-67
2023/08/14 07:50:13;;;;;;;1.65;0.55;;;19.70;99.90;;;;;;5111845;28;20427;-67
2023/08/14 07:52:39;;;;;;;0.43;0.20;;;19.80;99.90;;;;;;5107863;28;20043;-65
2023/08/14 07:55:05;;;;;;;0.70;0.38;;;19.80;99.90;;;;;;5107598;28;20106;-65
2023/08/14 07:57:31;;;;;;;1.08;0.52;;;19.90;99.90;;;;;;5105950;28;20032;-65
2023/08/14 07:59:57;;;;;;;0.55;0.30;;;20.00;99.90;;;;;;5104764;28;20071;-67
2023/08/14 08:02:23;;;;;;;1.10;0.50;;;20.10;99.90;;;;;;5106441;28;20133;-67
2023/08/14 08:04:49;;;;;;;0.60;0.40;;;20.20;99.90;;;;;;5105076;28;20040;-67
2023/08/14 08:07:15;;;;;;;0.40;0.22;;;20.20;99.90;;;;;;5100843;28;20067;-64
2023/08/14 08:09:41;;;;;;;0.77;0.30;;;20.30;99.90;;;;;;5108134;28;20062;-64
2023/08/14 08:12:07;;;;;;;0.45;0.20;;;20.30;99.90;;;;;;5102483;28;20059;-67
2023/08/14 08:14:34;;;;;;;1.23;0.28;;;20.30;99.90;;;;;;5107348;28;20035;-67
2023/08/14 08:17:01;;;;;;;2.25;0.75;;;20.40;99.90;;;;;;5104995;28;20181;-66
2023/08/14 08:19:26;;;;;;;0.80;0.30;;;20.60;99.90;;;;;;5111296;28;20031;-66
2023/08/14 08:21:52;;;;;;;1.20;0.28;;;20.70;99.90;;;;;;5107542;28;20057;-67
2023/08/14 08:24:19;;;;;;;0.57;0.15;;;20.90;99.90;;;;;;5110728;27;20032;-67
2023/08/14 08:26:45;;;;;;;0.60;0.20;;;21.10;99.90;;;;;;5106437;28;20036;-64
2023/08/14 08:29:11;;;;;;;0.35;0.17;;;21.30;99.90;;;;;;5104734;28;20040;-65
2023/08/14 08:31:36;;;;;;;0.20;0.10;;;21.50;99.90;;;;;;5108067;28;20035;-65
2023/08/14 08:34:02;;;;;;;0.22;0.10;;;21.70;99.90;;;;;;5110902;28;20087;-65
2023/08/14 08:36:28;;;;;;;0.28;0.20;;;21.90;99.90;;;;;;5090823;28;20050;-65
2023/08/14 08:38:53;;;;;;;0.30;0.20;;;22.20;99.90;;;;;;5102739;28;20404;-65
2023/08/14 08:41:43;;;;;;;0.35;0.10;;;22.40;99.90;;;;;;5106380;28;20617;-65
2023/08/14 08:44:14;;;;;;;0.20;0.00;;;22.70;99.90;;;;;;5106979;28;20502;-66
2023/08/14 08:46:50;;;;;;;0.10;0.10;;;22.90;99.90;;;;;;5105481;28;20502;-65
2023/08/14 08:49:17;;;;;;;0.50;0.30;;;23.00;99.90;;;;;;5107177;27;20028;-65
2023/08/14 08:51:44;;;;;;;0.40;0.10;;;23.10;99.90;;;;;;5104362;27;20525;-65
2023/08/14 08:54:14;;;;;;;0.30;0.10;;;23.10;99.90;;;;;;5109646;28;20044;-66
2023/08/14 08:56:40;;;;;;;0.80;0.22;;;23.00;99.90;;;;;;5102580;28;20116;-66
2023/08/14 08:59:08;;;;;;;0.30;0.13;;;22.80;99.90;;;;;;5099507;28;20108;-67
2023/08/14 09:01:34;;;;;;;0.20;0.10;;;22.70;99.90;;;;;;5096466;28;20039;-67
2023/08/14 09:04:01;;;;;;;0.35;0.10;;;22.60;99.90;;;;;;5091060;28;20046;-67
2023/08/14 09:06:27;;;;;;;0.80;0.20;;;22.60;99.90;;;;;;5103252;28;20039;-67
2023/08/14 09:08:53;;;;;;;0.47;0.20;;;22.70;99.90;;;;;;5099260;28;20377;-68
2023/08/14 09:11:19;;;;;;;1.92;0.10;;;22.80;99.90;;;;;;5104993;28;20040;-67
2023/08/14 09:13:46;;;;;;;0.40;0.20;;;23.10;99.90;;;;;;5104091;28;20376;-67
2023/08/14 09:16:15;;;;;;;0.43;0.28;;;23.50;99.90;;;;;;5103494;28;20047;-68
2023/08/14 09:18:45;;;;;;;1.23;0.10;;;23.90;99.90;;;;;;5104778;28;20043;-68
2023/08/14 09:21:12;;;;;;;1.73;0.10;;;24.10;99.90;;;;;;5105871;28;20118;-68
2023/08/14 09:23:38;;;;;;;0.20;0.10;;;24.30;99.90;;;;;;5105579;28;20040;-68
2023/08/14 09:26:05;;;;;;;0.00;0.00;;;24.70;99.90;;;;;;5109237;28;20053;-67
2023/08/14 09:28:32;;;;;;;0.15;0.05;;;25.10;99.90;;;;;;5086358;28;20479;-68
2023/08/14 09:31:09;;;;;;;0.05;0.00;;;25.60;99.90;;;;;;5108210;28;20541;-67
2023/08/14 09:33:37;;;;;;;1.00;0.28;;;26.10;99.90;;;;;;5105950;28;20513;-68
2023/08/14 09:36:03;;;;;;;0.40;0.05;;;26.50;99.90;;;;;;5103516;28;20085;-68
2023/08/14 09:38:31;;;;;;;0.52;0.10;;;26.70;99.90;;;;;;5103456;28;20448;-68
2023/08/14 09:41:00;;;;;;;0.05;0.00;;;26.70;99.90;;;;;;5098677;28;20132;-68
2023/08/14 09:43:28;;;;;;;0.47;0.10;;;26.60;99.90;;;;;;5101727;28;20105;-68
2023/08/14 09:45:58;;;;;;;1.88;0.52;;;26.60;99.90;;;;;;5097345;28;20056;-68
2023/08/14 09:48:41;;;;;;;0.52;0.10;;;26.50;99.90;;;;;;5104940;28;20450;-68
2023/08/14 09:51:16;;;;;;;0.63;0.00;;;26.50;99.90;;;;;;5096317;28;20448;-68
2023/08/14 09:53:49;;;;;;;0.82;0.00;;;26.40;99.90;;;;;;5101706;28;20150;-68
2023/08/14 09:56:19;;;;;;;0.22;0.10;;;26.40;99.90;;;;;;5100952;28;20122;-68
2023/08/14 09:58:46;;;;;;;0.05;0.00;;;26.50;99.90;;;;;;5105736;28;20039;-68
2023/08/14 10:01:14;;;;;;;0.52;0.10;;;26.50;99.90;;;;;;5102921;28;20067;-68
2023/08/14 10:03:43;;;;;;;0.00;0.00;;;26.60;99.90;;;;;;5106625;28;20077;-67
2023/08/14 10:06:13;;;;;;;0.00;0.00;;;26.60;99.90;;;;;;5100848;28;20035;-68
2023/08/14 10:08:43;;;;;;;0.15;0.10;;;26.70;99.90;;;;;;5107587;28;20047;-68
2023/08/14 10:11:13;;;;;;;0.17;0.03;;;26.80;99.90;;;;;;5104569;27;20047;-68
2023/08/14 10:13:44;;;;;;;0.28;0.00;;;26.90;99.90;;;;;;5103103;28;20039;-68
2023/08/14 10:16:14;;;;;;;0.20;0.10;;;27.00;99.90;;;;;;5102670;28;20048;-67
2023/08/14 10:18:41;;;;;;;0.15;0.00;;;27.00;99.90;;;;;;5099155;28;20044;-68
2023/08/14 10:21:14;;;;;;;0.30;0.10;;;27.10;99.90;;;;;;5104603;28;20096;-68
2023/08/14 10:23:41;;;;;;;0.15;0.10;;;27.40;99.90;;;;;;5100273;28;20040;-68
2023/08/14 10:26:08;;;;;;;0.20;0.00;;;27.60;99.90;;;;;;5105419;28;20031;-68
2023/08/14 10:28:34;;;;;;;0.20;0.00;;;27.60;99.90;;;;;;5103559;28;20431;-66
2023/08/14 10:31:01;;;;;;;0.35;0.15;;;27.60;99.90;;;;;;5097978;28;20039;-68
2023/08/14 10:33:27;;;;;;;0.20;0.00;;;27.70;99.90;;;;;;5101766;28;20050;-66
2023/08/14 10:35:55;;;;;;;1.08;0.00;;;27.80;99.90;;;;;;5107309;28;20080;-68
2023/08/14 10:38:41;;;;;;;0.30;0.00;;;27.90;99.90;;;;;;5082215;28;20046;-67
2023/08/14 10:41:09;;;;;;;0.57;0.13;;;28.10;99.90;;;;;;5100818;28;20044;-67
2023/08/14 10:43:35;;;;;;;0.22;0.00;;;28.30;99.90;;;;;;5102982;28;20071;-68
2023/08/14 10:46:10;;;;;;;2.50;0.38;;;28.40;99.90;;;;;;5106045;28;20119;-68
2023/08/14 10:48:37;;;;;;;0.40;0.00;;;28.40;99.90;;;;;;5096780;28;20062;-67
2023/08/14 10:51:03;;;;;;;1.17;0.03;;;28.60;99.90;;;;;;5103106;28;20077;-68
2023/08/14 10:53:30;;;;;;;0.10;0.00;;;28.60;99.90;;;;;;5099232;28;21414;-67
2023/08/14 10:55:57;;;;;;;0.10;0.00;;;28.70;99.90;;;;;;5100155;28;20035;-67
2023/08/14 10:58:36;;;;;;;0.00;0.00;;;28.80;99.90;;;;;;5098497;28;20042;-67
2023/08/14 11:01:07;;;;;;;0.63;0.00;;;28.60;99.90;;;;;;5098260;28;20040;-67
2023/08/14 11:03:53;;;;;;;0.00;0.00;;;28.50;99.90;;;;;;5102978;28;20036;-68
2023/08/14 11:06:23;;;;;;;0.00;0.00;;;28.50;99.90;;;;;;5100762;28;20119;-67
2023/08/14 11:08:55;;;;;;;0.22;0.00;;;28.40;99.90;;;;;;5101549;28;20097;-69
2023/08/14 11:11:21;;;;;;;0.10;0.00;;;28.50;99.90;;;;;;5100037;28;20043;-68
2023/08/14 11:13:47;;;;;;;0.00;0.00;;;28.70;99.90;;;;;;5101101;28;20035;-69
2023/08/14 11:16:13;;;;;;;0.25;0.25;;;28.90;99.90;;;;;;5100534;28;20043;-69
2023/08/14 11:18:40;;;;;;;1.30;0.10;;;29.10;99.90;;;;;;5098402;28;20124;-68
2023/08/14 11:21:05;;;;;;;0.10;0.00;;;29.20;99.90;;;;;;5103123;28;20043;-68
2023/08/14 11:23:33;;;;;;;0.08;0.08;;;29.40;99.90;;;;;;5105436;28;20032;-68
2023/08/14 11:25:59;;;;;;;0.20;0.00;;;29.60;99.90;;;;;;5105981;28;20070;-68
2023/08/14 11:28:24;;;;;;;0.08;0.00;;;29.80;99.90;;;;;;5103938;28;20117;-69
2023/08/14 11:30:50;;;;;;;2.05;0.10;;;29.90;99.90;;;;;;5106702;28;20036;-69
2023/08/14 11:33:21;;;;;;;0.43;0.00;;;30.00;99.90;;;;;;5106007;28;20270;-68
2023/08/14 11:35:47;;;;;;;0.40;0.05;;;30.20;97.20;;;;;;5107592;28;20385;-68
2023/08/14 11:38:13;;;;;;;0.10;0.10;;;30.30;99.90;;;;;;5106329;28;20038;-69
2023/08/14 11:40:41;;;;;;;0.10;0.00;;;30.40;99.90;;;;;;5105995;28;20104;-69
2023/08/14 11:43:06;;;;;;;0.22;0.00;;;30.40;99.20;;;;;;5105249;28;20047;-68
2023/08/14 11:45:32;;;;;;;0.00;0.00;;;30.30;98.40;;;;;;5106900;28;20047;-67
2023/08/14 11:47:58;;;;;;;0.43;0.00;;;30.00;95.60;;;;;;5100741;28;20047;-68
2023/08/14 11:50:23;;;;;;;0.00;0.00;;;29.90;99.90;;;;;;5106574;28;20036;-69
2023/08/14 11:52:50;;;;;;;0.00;0.00;;;30.20;99.50;;;;;;5103208;28;20093;-69
2023/08/14 11:55:16;;;;;;;0.65;0.10;;;30.40;98.30;;;;;;5107314;28;20091;-69
2023/08/14 11:57:44;;;;;;;0.30;0.20;;;30.60;99.90;;;;;;5107026;28;20112;-68
2023/08/14 12:00:10;;;;;;;0.00;0.00;;;30.70;96.90;;;;;;5111829;28;20730;-69
2023/08/14 12:02:40;;;;;;;1.83;0.10;;;30.80;96.80;;;;;;5108988;28;20044;-69
2023/08/14 12:05:07;;;;;;;0.10;0.00;;;30.80;95.00;;;;;;5110638;28;20039;-69
2023/08/14 12:07:33;;;;;;;0.08;0.00;;;30.70;95.30;;;;;;5106707;28;20412;-69
2023/08/14 12:09:59;;;;;;;0.20;0.10;;;30.70;93.00;;;;;;5111334;28;20028;-68
2023/08/14 12:12:26;;;;;;;1.08;0.00;;;30.70;95.80;;;;;;5107393;28;20542;-68
2023/08/14 12:14:52;;;;;;;0.20;0.00;;;30.80;91.60;;;;;;5103084;28;20422;-68
2023/08/14 12:17:19;;;;;;;0.95;0.20;;;30.60;95.80;;;;;;5106771;28;20127;-69
2023/08/14 12:19:52;;;;;;;0.10;0.00;;;30.40;98.50;;;;;;5109067;28;20114;-68
2023/08/14 12:22:26;;;;;;;0.28;0.00;;;30.50;97.20;;;;;;5108420;28;20050;-68
2023/08/14 12:24:53;;;;;;;1.00;0.20;;;30.30;94.00;;;;;;5109569;28;20146;-68
2023/08/14 12:27:20;;;;;;;0.65;0.10;;;29.80;93.70;;;;;;5109059;28;20506;-66
2023/08/14 12:29:47;;;;;;;0.32;0.10;;;29.20;95.80;;;;;;5109322;28;20036;-68
2023/08/14 12:32:13;;;;;;;0.30;0.10;;;28.90;95.60;;;;;;5109912;28;20040;-67
2023/08/14 12:34:39;;;;;;;0.00;0.00;;;28.50;96.60;;;;;;5110110;28;20070;-68
2023/08/14 12:37:05;;;;;;;0.20;0.10;;;28.00;96.90;;;;;;5111889;28;20387;-68
2023/08/14 12:39:32;;;;;;;0.40;0.20;;;27.80;97.80;;;;;;5108333;28;20039;-68
2023/08/14 12:42:01;;;;;;;0.17;0.03;;;27.70;97.50;;;;;;5108051;28;21488;-68
2023/08/14 12:44:28;;;;;;;1.35;0.00;;;27.90;98.90;;;;;;5109759;27;20087;-68
2023/08/14 12:46:54;;;;;;;0.20;0.10;;;28.00;99.20;;;;;;5108043;28;20039;-68
2023/08/14 12:49:21;;;;;;;0.20;0.10;;;27.80;99.40;;;;;;5106184;27;20162;-68